CJZ3 weather

Melfort Airport
Melfort, Saskatchewan, Canada

Public forecast

Using degrees Celsius for public forecast. Weather courtesy of forecast.io.

Closest aviation weather report (METAR) to Melfort Airport

Closest report is Nipawin Airport, 37.5 nm (69.4 km) NE. Retrieved 2020/06/04 14:58 UTC (3 minutes ago):

CYBU 041458Z AUTO 35019KT 5SM -RA BR BKN009 BKN017 OVC024 10/09 A2966 RMK SLP057

Closest aviation forecast (TAF) to Melfort Airport

Closest forecast is Prince Albert Glass Field, 40.9 nm (75.7 km) WNW. Retrieved 2020/06/04 14:42 UTC (19 minutes ago):

TAF TAF CYPA 041340Z 0414/0502 36008KT P6SM BKN015 OVC030 TEMPO 0414/0417 5SM -RA BR OVC006 FM041700 36008KT P6SM BKN015 OVC030 TEMPO 0417/0502 P6SM -SHRA SCT015 OVC030 PROB30 0417/0502 VRB15G25KT 4SM TSRA BR BKN010CB RMK NXT FCST BY 041900Z